Belvidere, South Dakota
Current Conditions -  °F | °C
As of 8:53 AM on Monday 24 Nov 2014 (Local Time) from KPIR Reporting Station
Clear Clear  
Wind Chill:   Ceiling: Unl
Heat Index: 22°   Visibility: 10mi
Dew Point: 13°   Wind: 22mph
Humidity: 68%   Direction: 340°NNW
Pressure: 29.85"   Gusts: 28mph
Location:  43.83°N, 101.27°W
Report Text: KPIR 241553Z AUTO 34019G24KT 10SM CLR M06/M11 A2985 RMK AO2 PK WND 33026/1457 SLP128 T10561106
Loading
Personal Weather Stations






























Interactive Weather Map New forecast layout! Learn more

10-Day Weather Forecast

Advertisements
Track Severe Weather on mobile